createdAt,value
2023-04-27T00:00:25.911Z,6.20
2023-04-27T00:02:55.499Z,5.93
2023-04-27T00:05:23.901Z,5.47
2023-04-27T00:07:52.122Z,5.13
2023-04-27T00:10:20.329Z,4.63
2023-04-27T00:12:48.498Z,5.50
2023-04-27T00:15:16.922Z,4.47
2023-04-27T00:17:45.059Z,3.77
2023-04-27T00:20:14.727Z,3.50
2023-04-27T00:22:42.869Z,5.20
2023-04-27T00:25:11.870Z,5.90
2023-04-27T00:27:40.302Z,2.97
2023-04-27T00:30:09.562Z,6.40
2023-04-27T00:32:37.682Z,8.63
2023-04-27T00:35:06.226Z,3.73
2023-04-27T00:37:35.674Z,5.07
2023-04-27T00:40:05.971Z,3.37
2023-04-27T00:42:34.478Z,8.57
2023-04-27T00:45:03.359Z,4.10
2023-04-27T00:47:31.838Z,2.87
2023-04-27T00:49:59.901Z,4.53
2023-04-27T00:52:28.200Z,4.47
2023-04-27T00:54:58.861Z,4.07
2023-04-27T00:57:26.962Z,4.03
2023-04-27T00:59:55.086Z,4.83
2023-04-27T01:02:23.312Z,7.43
2023-04-27T01:04:52.123Z,5.83
2023-04-27T01:07:20.684Z,4.73
2023-04-27T01:09:49.073Z,3.30
2023-04-27T01:12:18.568Z,5.53
2023-04-27T01:14:46.681Z,4.93
2023-04-27T01:17:15.208Z,3.43
2023-04-27T01:19:45.043Z,5.73
2023-04-27T01:22:15.210Z,5.20
2023-04-27T01:24:44.716Z,3.57
2023-04-27T01:27:12.767Z,2.80
2023-04-27T01:29:40.913Z,4.70
2023-04-27T01:32:10.308Z,4.40
2023-04-27T01:34:38.436Z,4.47
2023-04-27T01:37:07.218Z,4.23
2023-04-27T01:39:35.541Z,3.30
2023-04-27T01:42:05.243Z,2.90
2023-04-27T01:44:33.318Z,2.57
2023-04-27T01:47:01.862Z,4.30
2023-04-27T01:49:30.145Z,3.80
2023-04-27T01:51:58.550Z,6.17
2023-04-27T01:54:28.675Z,5.50
2023-04-27T01:56:58.713Z,4.07
2023-04-27T01:59:28.264Z,4.27
2023-04-27T02:01:56.631Z,4.47
2023-04-27T02:04:25.980Z,2.40
2023-04-27T02:06:54.070Z,4.37
2023-04-27T02:09:22.541Z,4.60
2023-04-27T02:11:50.710Z,4.80
2023-04-27T02:14:18.862Z,4.33
2023-04-27T02:16:49.877Z,3.57
2023-04-27T02:19:18.528Z,4.60
2023-04-27T02:21:46.723Z,5.00
2023-04-27T02:24:14.827Z,3.53
2023-04-27T02:26:43.572Z,4.47
2023-04-27T02:29:12.233Z,6.17
2023-04-27T02:31:41.089Z,6.67
2023-04-27T02:34:10.762Z,4.97
2023-04-27T02:36:38.821Z,5.00
2023-04-27T02:39:06.947Z,6.17
2023-04-27T02:41:35.859Z,5.23
2023-04-27T02:44:03.966Z,3.70
2023-04-27T02:46:32.956Z,5.17
2023-04-27T02:49:01.240Z,3.90
2023-04-27T02:51:32.066Z,4.53
2023-04-27T02:54:00.177Z,2.77
2023-04-27T02:56:28.350Z,6.10
2023-04-27T02:58:57.415Z,4.17
2023-04-27T03:01:25.667Z,5.20
2023-04-27T03:03:54.049Z,4.80
2023-04-27T03:06:22.324Z,5.10
2023-04-27T03:08:51.848Z,7.50
2023-04-27T03:11:19.880Z,3.60
2023-04-27T03:13:48.380Z,3.73
2023-04-27T03:16:16.660Z,5.03
2023-04-27T03:18:44.756Z,2.33
2023-04-27T03:21:13.119Z,3.23
2023-04-27T03:23:41.819Z,3.60
2023-04-27T03:26:13.384Z,5.17
2023-04-27T03:28:42.738Z,4.40
2023-04-27T03:31:11.483Z,3.70
2023-04-27T03:33:39.638Z,3.10
2023-04-27T03:36:08.406Z,5.87
2023-04-27T03:38:36.608Z,4.60
2023-04-27T03:41:05.770Z,3.23
2023-04-27T03:43:35.221Z,4.80
2023-04-27T03:46:04.378Z,4.73
2023-04-27T03:48:32.790Z,5.60
2023-04-27T03:51:01.749Z,3.03
2023-04-27T03:53:30.217Z,5.07
2023-04-27T03:55:58.285Z,6.10
2023-04-27T03:58:28.601Z,6.87
2023-04-27T04:01:24.947Z,5.27
2023-04-27T04:03:53.295Z,6.77
2023-04-27T04:06:21.635Z,5.80
2023-04-27T04:08:50.143Z,4.57
2023-04-27T04:11:18.784Z,6.40
2023-04-27T04:13:47.474Z,8.80
2023-04-27T04:16:15.869Z,7.93
2023-04-27T04:18:45.405Z,12.27
2023-04-27T04:21:13.515Z,7.23
2023-04-27T04:23:42.141Z,9.33
2023-04-27T04:26:10.285Z,4.53
2023-04-27T04:28:38.770Z,5.50
2023-04-27T04:31:09.878Z,4.30
2023-04-27T04:33:38.228Z,4.60
2023-04-27T04:36:08.882Z,3.87
2023-04-27T04:38:37.022Z,7.50
2023-04-27T04:41:07.326Z,5.00
2023-04-27T04:43:35.462Z,8.27
2023-04-27T04:46:07.502Z,7.40
2023-04-27T04:48:36.841Z,6.20
2023-04-27T04:51:06.489Z,4.77
2023-04-27T04:53:37.390Z,4.53
2023-04-27T04:56:11.853Z,4.37
2023-04-27T04:58:40.091Z,4.77
2023-04-27T05:01:08.752Z,4.80
2023-04-27T05:03:36.975Z,6.30
2023-04-27T05:06:05.368Z,4.20
2023-04-27T05:08:33.400Z,4.70
2023-04-27T05:11:02.824Z,6.37
2023-04-27T05:13:31.117Z,9.23
2023-04-27T05:15:59.543Z,4.47
2023-04-27T05:18:27.707Z,7.80
2023-04-27T05:20:56.417Z,12.40
2023-04-27T05:23:24.539Z,13.70
2023-04-27T05:25:52.726Z,8.13
2023-04-27T05:28:22.254Z,6.83
2023-04-27T05:30:50.285Z,6.57
2023-04-27T05:33:18.336Z,9.23
2023-04-27T05:35:46.493Z,4.90
2023-04-27T05:38:17.529Z,5.07
2023-04-27T05:40:45.727Z,5.33
2023-04-27T05:43:14.283Z,4.57
2023-04-27T05:45:43.823Z,6.87
2023-04-27T05:48:12.066Z,5.73
2023-04-27T05:50:40.149Z,5.17
2023-04-27T05:53:08.275Z,4.80
2023-04-27T05:55:37.647Z,4.90
2023-04-27T05:58:08.999Z,7.13
2023-04-27T06:00:38.471Z,6.60
2023-04-27T06:03:08.138Z,5.70
2023-04-27T06:05:36.521Z,6.57
2023-04-27T06:08:05.091Z,8.10
2023-04-27T06:10:33.188Z,6.77
2023-04-27T06:13:01.222Z,7.60
2023-04-27T06:15:29.376Z,7.07
2023-04-27T06:17:57.514Z,7.37
2023-04-27T06:20:27.081Z,6.37
2023-04-27T06:22:55.251Z,6.37
2023-04-27T06:25:26.624Z,10.77
2023-04-27T06:27:55.427Z,5.17
2023-04-27T06:30:23.701Z,5.73
2023-04-27T06:32:52.124Z,5.83
2023-04-27T06:35:21.646Z,6.40
2023-04-27T06:37:51.563Z,6.33
2023-04-27T06:40:19.768Z,4.07
2023-04-27T06:42:47.882Z,5.87
2023-04-27T06:45:15.988Z,3.93
2023-04-27T06:47:44.141Z,4.80
2023-04-27T06:50:12.507Z,6.73
2023-04-27T06:52:40.603Z,6.37
2023-04-27T06:55:10.991Z,5.47
2023-04-27T06:57:39.109Z,4.63
2023-04-27T07:00:08.960Z,5.93
2023-04-27T07:02:37.124Z,4.43
2023-04-27T07:05:06.117Z,5.13
2023-04-27T07:07:34.378Z,6.93
2023-04-27T07:10:02.750Z,3.33
2023-04-27T07:12:32.750Z,5.47
2023-04-27T07:15:00.881Z,6.10
2023-04-27T07:17:29.374Z,4.27
2023-04-27T07:19:57.662Z,4.20
2023-04-27T07:22:25.756Z,4.10
2023-04-27T07:24:53.836Z,5.43
2023-04-27T07:27:22.327Z,4.37
2023-04-27T07:29:51.789Z,6.37
2023-04-27T07:32:20.267Z,6.40
2023-04-27T07:34:53.360Z,4.73
2023-04-27T07:37:22.429Z,8.23
2023-04-27T07:39:52.045Z,4.00
2023-04-27T07:42:20.217Z,7.70
2023-04-27T07:44:50.466Z,4.47
2023-04-27T07:47:21.907Z,5.23
2023-04-27T07:49:49.989Z,6.57
2023-04-27T07:52:18.088Z,5.80
2023-04-27T07:54:46.374Z,6.30
2023-04-27T07:57:14.436Z,6.87
2023-04-27T07:59:42.525Z,8.03
2023-04-27T08:02:18.350Z,5.10
2023-04-27T08:04:49.979Z,4.07
2023-04-27T08:07:18.713Z,4.50
2023-04-27T08:09:47.599Z,5.07
2023-04-27T08:12:15.730Z,3.07
2023-04-27T08:14:44.300Z,6.10
2023-04-27T08:17:12.536Z,3.77
2023-04-27T08:19:41.004Z,5.23
2023-04-27T08:22:10.672Z,4.23
2023-04-27T08:24:38.736Z,6.37
2023-04-27T08:27:07.211Z,5.27
2023-04-27T08:29:35.503Z,5.67
2023-04-27T08:32:04.074Z,4.60
2023-04-27T08:34:32.974Z,4.83
2023-04-27T08:37:02.359Z,6.03
2023-04-27T08:39:31.889Z,7.53
2023-04-27T08:42:00.444Z,4.87
2023-04-27T08:44:28.913Z,7.37
2023-04-27T08:46:57.135Z,6.17
2023-04-27T08:49:25.221Z,5.87
2023-04-27T08:51:53.346Z,8.07
2023-04-27T08:54:21.973Z,5.23
2023-04-27T08:56:51.468Z,5.87
2023-04-27T08:59:19.539Z,6.47
2023-04-27T09:01:49.013Z,5.33
2023-04-27T09:04:18.024Z,8.23
2023-04-27T09:06:46.565Z,5.57
2023-04-27T09:09:23.197Z,4.97
2023-04-27T09:11:52.704Z,8.90
2023-04-27T09:14:21.304Z,5.67
2023-04-27T09:16:56.185Z,7.80
2023-04-27T09:19:27.636Z,7.30
2023-04-27T09:22:05.522Z,8.37
2023-04-27T09:24:33.688Z,4.63
2023-04-27T09:27:05.145Z,5.77
2023-04-27T09:29:34.630Z,6.73
2023-04-27T09:32:02.869Z,9.37
2023-04-27T09:34:40.836Z,6.80
2023-04-27T09:37:09.808Z,6.87
2023-04-27T09:39:38.050Z,10.20
2023-04-27T09:42:08.482Z,6.57
2023-04-27T09:44:36.608Z,5.07
2023-04-27T09:47:04.943Z,7.87
2023-04-27T09:49:33.851Z,5.90
2023-04-27T09:52:02.853Z,5.30
2023-04-27T09:54:32.332Z,7.37
2023-04-27T09:57:16.025Z,9.33
2023-04-27T09:59:58.862Z,4.97
2023-04-27T10:02:27.041Z,7.70
2023-04-27T10:05:18.916Z,6.83
2023-04-27T10:07:47.329Z,5.13
2023-04-27T10:10:19.193Z,7.90
2023-04-27T10:12:58.548Z,11.53
2023-04-27T10:15:30.240Z,5.57
2023-04-27T10:18:05.401Z,6.53
2023-04-27T10:20:34.213Z,4.67
2023-04-27T10:23:02.376Z,5.10
2023-04-27T10:25:31.718Z,6.90
2023-04-27T10:28:01.767Z,5.47
2023-04-27T10:30:33.313Z,6.20
2023-04-27T10:33:06.506Z,7.87
2023-04-27T10:35:34.827Z,5.73
2023-04-27T10:38:09.546Z,6.20
2023-04-27T10:40:38.149Z,5.73
2023-04-27T10:43:11.426Z,6.30
2023-04-27T10:45:39.494Z,4.97
2023-04-27T10:48:08.064Z,4.13
2023-04-27T10:50:37.047Z,6.57
2023-04-27T10:53:06.207Z,5.60
2023-04-27T10:55:35.064Z,5.77
2023-04-27T10:58:04.323Z,6.20
2023-04-27T11:00:34.744Z,8.90
2023-04-27T11:03:12.590Z,7.30
2023-04-27T11:05:41.358Z,6.20
2023-04-27T11:08:10.022Z,5.53
2023-04-27T11:10:40.158Z,6.90
2023-04-27T11:13:10.326Z,11.20
2023-04-27T11:15:50.079Z,4.37
2023-04-27T11:18:19.277Z,6.97
2023-04-27T11:20:49.104Z,8.23
2023-04-27T11:23:25.628Z,6.80
2023-04-27T11:25:54.491Z,6.37
2023-04-27T11:28:22.721Z,7.77
2023-04-27T11:30:58.240Z,6.10
2023-04-27T11:33:26.404Z,4.40
2023-04-27T11:35:54.510Z,7.10
2023-04-27T11:38:23.362Z,5.17
2023-04-27T11:41:00.519Z,5.10
2023-04-27T11:43:28.656Z,7.67
2023-04-27T11:45:58.987Z,4.53
2023-04-27T11:48:28.396Z,6.00
2023-04-27T11:50:59.193Z,5.67
2023-04-27T11:53:31.619Z,6.17
2023-04-27T11:56:01.159Z,7.47
2023-04-27T11:58:29.322Z,6.47
2023-04-27T12:00:59.317Z,4.60
2023-04-27T12:03:28.974Z,8.03
2023-04-27T12:06:04.150Z,8.60
2023-04-27T12:08:40.102Z,5.90
2023-04-27T12:11:08.241Z,5.10
2023-04-27T12:13:36.285Z,9.30
2023-04-27T12:16:06.980Z,4.70
2023-04-27T12:18:35.697Z,7.30
2023-04-27T12:21:07.740Z,6.87
2023-04-27T12:23:36.649Z,7.43
2023-04-27T12:26:05.199Z,6.63
2023-04-27T12:28:33.286Z,11.20
2023-04-27T12:31:04.008Z,4.87
2023-04-27T12:33:33.942Z,7.17
2023-04-27T12:36:02.027Z,7.60
2023-04-27T12:38:30.116Z,5.27
2023-04-27T12:40:58.193Z,4.73
2023-04-27T12:43:26.408Z,6.20
2023-04-27T12:45:55.037Z,5.70
2023-04-27T12:48:23.651Z,7.17
2023-04-27T12:50:53.209Z,6.23
2023-04-27T12:53:27.449Z,7.77
2023-04-27T12:55:55.945Z,4.77
2023-04-27T12:58:24.416Z,5.23
2023-04-27T13:00:52.955Z,9.00
2023-04-27T13:03:21.186Z,8.27
2023-04-27T13:05:49.794Z,7.87
2023-04-27T13:08:19.301Z,4.90
2023-04-27T13:10:47.403Z,8.20
2023-04-27T13:13:15.909Z,5.93
2023-04-27T13:15:44.116Z,5.63
2023-04-27T13:18:12.341Z,6.73
2023-04-27T13:20:40.463Z,7.07
2023-04-27T13:23:08.819Z,6.33
2023-04-27T13:25:38.271Z,5.67
2023-04-27T13:28:07.529Z,7.77
2023-04-27T13:30:35.814Z,5.50
2023-04-27T13:33:18.592Z,7.00
2023-04-27T13:35:50.545Z,8.00
2023-04-27T13:38:18.732Z,6.50
2023-04-27T13:40:48.613Z,6.77
2023-04-27T13:43:16.743Z,8.60
2023-04-27T13:45:45.396Z,5.93
2023-04-27T13:48:13.681Z,6.17
2023-04-27T13:50:41.942Z,5.70
2023-04-27T13:53:10.089Z,8.80
2023-04-27T13:55:38.657Z,6.67
2023-04-27T13:58:08.234Z,6.33
2023-04-27T14:00:37.446Z,7.40
2023-04-27T14:03:05.882Z,6.67
2023-04-27T14:05:34.117Z,7.40
2023-04-27T14:08:02.687Z,8.93
2023-04-27T14:10:31.149Z,8.43
2023-04-27T14:12:59.234Z,5.47
2023-04-27T14:15:29.193Z,5.77
2023-04-27T14:17:57.315Z,6.10
2023-04-27T14:20:27.312Z,9.37
2023-04-27T14:22:58.299Z,6.23
2023-04-27T14:25:27.315Z,5.07
2023-04-27T14:27:55.410Z,9.53
2023-04-27T14:30:24.031Z,5.53
2023-04-27T14:32:53.954Z,5.13
2023-04-27T14:35:23.758Z,5.40
2023-04-27T14:37:52.136Z,5.07
2023-04-27T14:40:20.483Z,8.83
2023-04-27T14:42:48.619Z,5.10
2023-04-27T14:45:18.957Z,9.57
2023-04-27T14:47:48.528Z,8.17
2023-04-27T14:50:18.170Z,6.03
2023-04-27T14:52:46.389Z,8.53
2023-04-27T14:55:15.307Z,6.27
2023-04-27T14:57:43.396Z,8.13
2023-04-27T15:00:14.651Z,6.57
2023-04-27T15:02:43.010Z,7.03
2023-04-27T15:05:11.507Z,7.80
2023-04-27T15:07:41.289Z,8.60
2023-04-27T15:10:10.906Z,4.83
2023-04-27T15:12:38.997Z,9.27
2023-04-27T15:15:10.709Z,8.53
2023-04-27T15:17:39.091Z,7.00
2023-04-27T15:20:08.688Z,8.53
2023-04-27T15:22:36.936Z,8.43
2023-04-27T15:25:08.423Z,9.83
2023-04-27T15:27:37.077Z,9.70
2023-04-27T15:30:06.251Z,18.67
2023-04-27T15:32:34.482Z,9.30
2023-04-27T15:35:02.621Z,9.30
2023-04-27T15:37:30.810Z,8.53
2023-04-27T15:39:59.222Z,6.53
2023-04-27T15:42:28.815Z,8.13
2023-04-27T15:44:57.375Z,9.47
2023-04-27T15:47:25.519Z,8.63
2023-04-27T15:49:57.440Z,8.10
2023-04-27T15:52:27.108Z,11.30
2023-04-27T15:54:55.991Z,9.77
2023-04-27T15:57:24.027Z,10.00
2023-04-27T15:59:53.713Z,7.83
2023-04-27T16:02:24.512Z,10.83
2023-04-27T16:04:57.685Z,9.03
2023-04-27T16:07:25.731Z,9.23
2023-04-27T16:09:58.483Z,10.50
2023-04-27T16:12:28.186Z,10.07
2023-04-27T16:14:58.139Z,8.10
2023-04-27T16:17:26.407Z,9.00
2023-04-27T16:19:54.599Z,10.33
2023-04-27T16:22:23.507Z,10.33
2023-04-27T16:24:51.876Z,8.60
2023-04-27T16:27:20.840Z,10.10
2023-04-27T16:29:49.362Z,9.63
2023-04-27T16:32:21.752Z,11.70
2023-04-27T16:34:49.878Z,8.97
2023-04-27T16:37:18.065Z,8.03
2023-04-27T16:39:46.530Z,9.87
2023-04-27T16:42:19.793Z,10.27
2023-04-27T16:44:47.986Z,9.60
2023-04-27T16:47:16.087Z,9.90
2023-04-27T16:49:45.914Z,9.97
2023-04-27T16:52:14.054Z,7.40
2023-04-27T16:54:42.273Z,10.43
2023-04-27T16:57:10.422Z,12.87
2023-04-27T16:59:38.646Z,12.60
2023-04-27T17:02:23.137Z,11.03
2023-04-27T17:04:53.952Z,12.37
2023-04-27T17:07:22.389Z,9.17
2023-04-27T17:09:50.506Z,9.03
2023-04-27T17:12:18.571Z,11.73
2023-04-27T17:14:46.795Z,8.70
2023-04-27T17:17:15.336Z,8.43
2023-04-27T17:19:43.433Z,7.37
2023-04-27T17:22:14.819Z,12.53
2023-04-27T17:24:42.862Z,10.23
2023-04-27T17:27:11.507Z,10.37
2023-04-27T17:29:44.163Z,12.87
2023-04-27T17:32:12.731Z,11.23
2023-04-27T17:34:42.983Z,14.73
2023-04-27T17:37:12.709Z,11.90
2023-04-27T17:39:41.307Z,8.20
2023-04-27T17:42:12.494Z,7.20
2023-04-27T17:44:42.383Z,10.80
2023-04-27T17:47:10.602Z,9.20
2023-04-27T17:49:38.658Z,6.00
2023-04-27T17:52:06.787Z,13.03
2023-04-27T17:54:36.274Z,6.57
2023-04-27T17:57:04.477Z,9.53
2023-04-27T17:59:33.173Z,9.87
2023-04-27T18:02:01.440Z,8.50
2023-04-27T18:04:29.708Z,9.90
2023-04-27T18:06:58.092Z,9.13
2023-04-27T18:09:27.111Z,11.03
2023-04-27T18:11:57.155Z,7.40
2023-04-27T18:14:25.626Z,9.53
2023-04-27T18:16:53.898Z,8.87
2023-04-27T18:19:22.057Z,8.37
2023-04-27T18:21:50.853Z,19.90
2023-04-27T18:24:19.217Z,7.77
2023-04-27T18:26:47.962Z,10.03
2023-04-27T18:29:18.011Z,9.30
2023-04-27T18:31:46.508Z,10.43
2023-04-27T18:34:14.936Z,8.53
2023-04-27T18:36:43.143Z,9.83
2023-04-27T18:39:11.303Z,10.30
2023-04-27T18:41:40.130Z,15.30
2023-04-27T18:44:08.270Z,12.17
2023-04-27T18:46:37.803Z,11.47
2023-04-27T18:49:05.875Z,8.47
2023-04-27T18:51:33.962Z,8.37
2023-04-27T18:54:02.040Z,10.60
2023-04-27T18:56:30.071Z,9.07
2023-04-27T18:59:00.339Z,10.03
2023-04-27T19:01:30.189Z,14.23
2023-04-27T19:03:59.883Z,13.53
2023-04-27T19:06:28.058Z,8.87
2023-04-27T19:08:56.571Z,11.23
2023-04-27T19:11:25.544Z,9.87
2023-04-27T19:13:53.974Z,10.87
2023-04-27T19:16:22.079Z,7.87
2023-04-27T19:18:50.288Z,12.03
2023-04-27T19:21:19.856Z,8.47
2023-04-27T19:23:48.009Z,11.10
2023-04-27T19:26:16.134Z,12.40
2023-04-27T19:28:44.206Z,9.50
2023-04-27T19:31:12.486Z,9.80
2023-04-27T19:33:46.835Z,11.07
2023-04-27T19:36:15.364Z,11.90
2023-04-27T19:38:44.850Z,12.33
2023-04-27T19:41:14.087Z,14.30
2023-04-27T19:43:42.292Z,9.00
2023-04-27T19:46:11.511Z,10.97
2023-04-27T19:48:42.508Z,11.07
2023-04-27T19:51:11.315Z,11.90
2023-04-27T19:53:39.368Z,9.77
2023-04-27T19:56:08.854Z,9.23
2023-04-27T19:58:37.270Z,7.43
2023-04-27T20:01:06.323Z,9.50
2023-04-27T20:03:35.631Z,10.20
2023-04-27T20:06:04.184Z,10.13
2023-04-27T20:08:34.162Z,8.57
2023-04-27T20:11:02.253Z,8.37
2023-04-27T20:13:31.716Z,9.53
2023-04-27T20:16:00.205Z,9.20
2023-04-27T20:18:31.633Z,10.07
2023-04-27T20:20:59.796Z,9.50
2023-04-27T20:23:27.870Z,11.97
2023-04-27T20:25:55.941Z,10.50
2023-04-27T20:28:25.840Z,10.57
2023-04-27T20:30:55.352Z,10.37
2023-04-27T20:33:23.461Z,10.60
2023-04-27T20:35:55.517Z,12.17
2023-04-27T20:38:25.108Z,10.37
2023-04-27T20:40:54.176Z,10.60
2023-04-27T20:43:22.336Z,9.60
2023-04-27T20:45:50.424Z,12.97
2023-04-27T20:48:19.884Z,13.37
2023-04-27T20:50:48.065Z,10.20
2023-04-27T20:53:16.396Z,12.47
2023-04-27T20:55:46.328Z,8.90
2023-04-27T20:58:14.375Z,8.07
2023-04-27T21:00:42.553Z,8.83
2023-04-27T21:03:10.983Z,11.27
2023-04-27T21:05:41.087Z,12.03
2023-04-27T21:08:09.575Z,9.27
2023-04-27T21:10:37.645Z,8.70
2023-04-27T21:13:05.878Z,10.10
2023-04-27T21:15:34.049Z,8.60
2023-04-27T21:18:03.974Z,9.10
2023-04-27T21:20:32.265Z,12.13
2023-04-27T21:23:01.788Z,8.07
2023-04-27T21:25:29.867Z,9.00
2023-04-27T21:27:57.976Z,9.77
2023-04-27T21:30:26.049Z,9.50
2023-04-27T21:32:54.169Z,12.80
2023-04-27T21:35:22.661Z,11.33
2023-04-27T21:37:50.780Z,10.80
2023-04-27T21:40:20.902Z,11.27
2023-04-27T21:42:49.008Z,8.97
2023-04-27T21:45:17.107Z,9.67
2023-04-27T21:47:46.174Z,10.83
2023-04-27T21:50:14.384Z,11.60
2023-04-27T21:52:42.518Z,8.90
2023-04-27T21:55:11.056Z,11.77
2023-04-27T21:57:40.543Z,9.90
2023-04-27T22:00:13.674Z,8.07
2023-04-27T22:02:51.304Z,8.20
2023-04-27T22:05:20.935Z,7.77
2023-04-27T22:07:49.082Z,8.57
2023-04-27T22:10:17.165Z,10.03
2023-04-27T22:12:46.906Z,9.97
2023-04-27T22:15:15.624Z,9.43
2023-04-27T22:17:44.038Z,8.97
2023-04-27T22:20:12.791Z,11.40
2023-04-27T22:22:40.859Z,11.80
2023-04-27T22:25:09.687Z,10.20
2023-04-27T22:27:45.126Z,9.47
2023-04-27T22:30:16.685Z,8.77
2023-04-27T22:32:44.970Z,9.30
2023-04-27T22:35:24.767Z,11.23
2023-04-27T22:37:55.792Z,7.43
2023-04-27T22:40:24.440Z,7.13
2023-04-27T22:42:53.031Z,7.60
2023-04-27T22:45:22.777Z,8.33
2023-04-27T22:47:51.038Z,9.70
2023-04-27T22:50:19.328Z,8.50
2023-04-27T22:52:48.344Z,6.80
2023-04-27T22:55:16.753Z,9.00
2023-04-27T22:57:44.836Z,8.30
2023-04-27T23:00:13.617Z,7.20
2023-04-27T23:02:43.427Z,6.23
2023-04-27T23:05:12.423Z,6.73
2023-04-27T23:07:41.056Z,8.97
2023-04-27T23:10:10.431Z,8.93
2023-04-27T23:12:38.815Z,6.20
2023-04-27T23:15:07.993Z,6.87
2023-04-27T23:17:36.267Z,6.80
2023-04-27T23:20:20.467Z,9.03
2023-04-27T23:22:55.268Z,11.63
2023-04-27T23:25:23.418Z,10.77
2023-04-27T23:27:52.543Z,7.30
2023-04-27T23:30:21.540Z,6.50
2023-04-27T23:32:49.810Z,7.93
2023-04-27T23:35:20.097Z,11.27
2023-04-27T23:37:48.262Z,5.23
2023-04-27T23:40:16.517Z,6.90
2023-04-27T23:42:44.966Z,6.97
2023-04-27T23:45:13.689Z,7.03
2023-04-27T23:47:42.279Z,8.43
2023-04-27T23:50:13.472Z,8.90
2023-04-27T23:52:42.970Z,7.33
2023-04-27T23:55:11.354Z,11.60
2023-04-27T23:57:39.460Z,9.97
